createdAt,value
2018-03-23T00:00:37.496Z,94505.95
2018-03-23T00:03:05.757Z,94510.16
2018-03-23T00:05:34.794Z,94504.50
2018-03-23T00:08:03.044Z,94508.51
2018-03-23T00:10:31.317Z,94512.65
2018-03-23T00:13:00.324Z,94516.25
2018-03-23T00:15:28.593Z,94512.56
2018-03-23T00:17:57.607Z,94511.55
2018-03-23T00:20:25.883Z,94510.91
2018-03-23T00:22:54.890Z,94510.91
2018-03-23T00:25:23.144Z,94501.21
2018-03-23T00:27:52.184Z,94498.09
2018-03-23T00:30:20.450Z,94494.50
2018-03-23T00:32:48.718Z,94490.74
2018-03-23T00:35:17.744Z,94493.42
2018-03-23T00:37:45.995Z,94488.53
2018-03-23T00:40:15.041Z,94482.44
2018-03-23T00:42:43.296Z,94476.13
2018-03-23T00:45:11.553Z,94472.70
2018-03-23T00:47:40.587Z,94474.63
2018-03-23T00:50:08.832Z,94467.05
2018-03-23T00:52:37.092Z,94464.12
2018-03-23T00:55:05.360Z,94467.77
2018-03-23T00:57:33.604Z,94468.97
2018-03-23T01:00:01.867Z,94462.91
2018-03-23T01:02:30.133Z,94468.62
2018-03-23T01:04:58.409Z,94468.66
2018-03-23T01:07:27.430Z,94462.49
2018-03-23T01:09:55.692Z,94459.75
2018-03-23T01:12:24.739Z,94447.02
2018-03-23T01:14:52.969Z,94445.88
2018-03-23T01:17:22.010Z,94449.46
2018-03-23T01:19:50.265Z,94440.41
2018-03-23T01:22:18.518Z,94448.67
2018-03-23T01:24:47.549Z,94444.80
2018-03-23T01:27:15.796Z,94452.04
2018-03-23T01:29:44.921Z,94448.38
2018-03-23T01:32:13.187Z,94447.78
2018-03-23T01:34:42.208Z,94446.04
2018-03-23T01:37:10.460Z,94446.78
2018-03-23T01:39:39.476Z,94442.50
2018-03-23T01:42:07.741Z,94439.50
2018-03-23T01:44:36.757Z,94437.49
2018-03-23T01:47:05.167Z,94440.07
2018-03-23T01:49:33.424Z,94439.14
2018-03-23T01:52:01.673Z,94439.28
2018-03-23T01:54:30.698Z,94435.56
2018-03-23T01:56:58.952Z,94433.64
2018-03-23T01:59:27.974Z,94437.43
2018-03-23T02:01:56.229Z,94439.50
2018-03-23T02:04:27.496Z,94431.76
2018-03-23T02:06:55.740Z,94435.06
2018-03-23T02:09:23.997Z,94427.70
2018-03-23T02:11:52.264Z,94430.47
2018-03-23T02:14:20.512Z,94427.07
2018-03-23T02:16:48.764Z,94417.16
2018-03-23T02:19:17.034Z,94417.64
2018-03-23T02:21:45.285Z,94414.09
2018-03-23T02:24:13.581Z,94411.12
2018-03-23T02:26:41.832Z,94410.39
2018-03-23T02:29:10.106Z,94411.06
2018-03-23T02:31:38.362Z,94414.06
2018-03-23T02:34:07.386Z,94409.76
2018-03-23T02:36:35.634Z,94406.50
2018-03-23T02:39:04.644Z,94409.61
2018-03-23T02:41:33.669Z,94409.23
2018-03-23T02:44:01.935Z,94408.97
2018-03-23T02:46:30.185Z,94407.89
2018-03-23T02:48:59.204Z,94411.85
2018-03-23T02:51:28.329Z,94415.38
2018-03-23T02:53:56.598Z,94405.63
2018-03-23T02:56:24.840Z,94411.08
2018-03-23T02:58:53.085Z,94409.51
2018-03-23T03:01:21.359Z,94411.98
2018-03-23T03:03:49.601Z,94406.28
2018-03-23T03:06:18.617Z,94406.37
2018-03-23T03:08:46.885Z,94401.64
2018-03-23T03:11:15.899Z,94403.34
2018-03-23T03:13:44.159Z,94403.03
2018-03-23T03:16:13.181Z,94400.52
2018-03-23T03:18:41.437Z,94396.48
2018-03-23T03:21:10.465Z,94397.20
2018-03-23T03:23:38.728Z,94396.83
2018-03-23T03:26:06.960Z,94395.61
2018-03-23T03:28:35.219Z,94395.08
2018-03-23T03:31:03.488Z,94396.02
2018-03-23T03:33:31.736Z,94378.86
2018-03-23T03:35:59.988Z,94381.03
2018-03-23T03:38:28.236Z,94386.71
2018-03-23T03:40:56.500Z,94389.35
2018-03-23T03:43:24.739Z,94382.95
2018-03-23T03:45:53.752Z,94386.52
2018-03-23T03:48:22.025Z,94381.88
2018-03-23T03:50:51.052Z,94386.55
2018-03-23T03:53:19.311Z,94379.80
2018-03-23T03:55:47.576Z,94378.92
2018-03-23T03:58:16.589Z,94375.70
2018-03-23T04:00:45.600Z,94372.92
2018-03-23T04:03:14.004Z,94376.02
2018-03-23T04:05:42.268Z,94377.41
2018-03-23T04:08:10.975Z,94381.76
2018-03-23T04:10:39.235Z,94377.88
2018-03-23T04:13:08.741Z,94369.83
2018-03-23T04:15:37.008Z,94378.88
2018-03-23T04:18:06.026Z,94377.10
2018-03-23T04:20:34.276Z,94374.89
2018-03-23T04:23:03.309Z,94374.26
2018-03-23T04:25:31.577Z,94378.20
2018-03-23T04:27:59.836Z,94372.41
2018-03-23T04:30:28.864Z,94367.29
2018-03-23T04:32:57.115Z,94371.27
2018-03-23T04:35:26.132Z,94370.85
2018-03-23T04:37:54.396Z,94368.17
2018-03-23T04:40:23.408Z,94365.64
2018-03-23T04:42:51.667Z,94363.02
2018-03-23T04:45:20.700Z,94365.70
2018-03-23T04:47:48.949Z,94363.25
2018-03-23T04:50:17.970Z,94360.11
2018-03-23T04:52:46.275Z,94359.27
2018-03-23T04:55:15.256Z,94358.30
2018-03-23T04:57:43.516Z,94358.33
2018-03-23T05:00:11.776Z,94348.72
2018-03-23T05:02:40.789Z,94357.35
2018-03-23T05:05:10.145Z,94348.98
2018-03-23T05:07:38.404Z,94347.13
2018-03-23T05:10:06.664Z,94342.88
2018-03-23T05:12:34.939Z,94339.36
2018-03-23T05:15:03.955Z,94343.09
2018-03-23T05:17:32.188Z,94339.53
2018-03-23T05:20:00.693Z,94343.16
2018-03-23T05:22:29.708Z,94337.79
2018-03-23T05:24:57.952Z,94333.50
2018-03-23T05:27:26.218Z,94328.51
2018-03-23T05:29:54.468Z,94325.17
2018-03-23T05:32:22.720Z,94330.43
2018-03-23T05:34:51.751Z,94335.12
2018-03-23T05:37:19.996Z,94333.25
2018-03-23T05:39:48.247Z,94329.08
2018-03-23T05:42:16.506Z,94326.93
